createdAt,value
2018-12-26T00:02:40.290Z,29.30
2018-12-26T00:05:29.986Z,30.12
2018-12-26T00:08:20.762Z,28.07
2018-12-26T00:11:11.208Z,24.92
2018-12-26T00:14:04.157Z,27.45
2018-12-26T00:16:54.600Z,27.07
2018-12-26T00:19:44.840Z,27.65
2018-12-26T00:22:34.765Z,29.43
2018-12-26T00:25:24.995Z,21.68
2018-12-26T00:28:15.355Z,27.02
2018-12-26T00:31:05.961Z,25.30
2018-12-26T00:33:56.109Z,24.10
2018-12-26T00:36:46.050Z,22.93
2018-12-26T00:39:36.342Z,21.90
2018-12-26T00:42:26.850Z,23.18
2018-12-26T00:45:16.986Z,22.13
2018-12-26T00:48:07.199Z,20.17
2018-12-26T00:50:57.654Z,21.60
2018-12-26T00:53:47.265Z,22.07
2018-12-26T00:56:37.195Z,18.92
2018-12-26T00:59:27.208Z,21.62
2018-12-26T01:02:17.384Z,21.93
2018-12-26T01:05:07.402Z,22.00
2018-12-26T01:07:57.548Z,20.72
2018-12-26T01:10:47.692Z,22.35
2018-12-26T01:13:37.883Z,19.37
2018-12-26T01:16:28.080Z,20.50
2018-12-26T01:19:18.552Z,20.20
2018-12-26T01:22:08.302Z,19.97
2018-12-26T01:24:57.952Z,24.00
2018-12-26T01:27:47.699Z,22.52
2018-12-26T01:30:38.243Z,21.23
2018-12-26T01:33:28.619Z,20.85
2018-12-26T01:36:18.454Z,21.40
2018-12-26T01:39:08.989Z,19.62
2018-12-26T01:41:58.763Z,20.85
2018-12-26T01:44:48.597Z,23.75
2018-12-26T01:47:38.788Z,21.50
2018-12-26T01:50:29.084Z,24.02
2018-12-26T01:53:18.907Z,23.83
2018-12-26T01:56:09.274Z,22.25
2018-12-26T01:58:59.733Z,20.77
2018-12-26T02:01:49.525Z,20.12
2018-12-26T02:04:39.966Z,19.15
2018-12-26T02:07:30.193Z,18.10
2018-12-26T02:10:20.559Z,18.25
2018-12-26T02:13:10.600Z,15.90
2018-12-26T02:16:00.708Z,18.17
2018-12-26T02:18:51.207Z,15.93
2018-12-26T02:21:42.119Z,16.93
2018-12-26T02:24:32.749Z,18.37
2018-12-26T02:27:23.207Z,21.87
2018-12-26T02:30:13.740Z,18.70
2018-12-26T02:33:03.299Z,19.30
2018-12-26T02:35:53.465Z,21.75
2018-12-26T02:38:43.238Z,18.75
2018-12-26T02:41:34.054Z,19.48
2018-12-26T02:44:23.866Z,18.95
2018-12-26T02:47:13.894Z,18.87
2018-12-26T02:50:04.862Z,21.07
2018-12-26T02:52:55.169Z,19.43
2018-12-26T02:55:45.417Z,18.20
2018-12-26T02:58:35.393Z,18.27
2018-12-26T03:01:25.922Z,20.27
2018-12-26T03:04:15.909Z,17.90
2018-12-26T03:07:05.818Z,17.63
2018-12-26T03:09:56.087Z,19.23
2018-12-26T03:12:46.035Z,14.95
2018-12-26T03:15:36.360Z,18.57
2018-12-26T03:18:26.332Z,18.82
2018-12-26T03:21:16.193Z,18.70
2018-12-26T03:24:06.660Z,17.52
2018-12-26T03:26:56.986Z,19.12
2018-12-26T03:29:46.984Z,20.92
2018-12-26T03:32:37.449Z,17.85
2018-12-26T03:35:27.732Z,18.15
2018-12-26T03:38:17.596Z,17.50
2018-12-26T03:41:07.919Z,21.20
2018-12-26T03:43:58.767Z,14.73
2018-12-26T03:46:48.538Z,15.08
2018-12-26T03:49:38.859Z,17.50
2018-12-26T03:52:28.971Z,15.27
2018-12-26T03:55:18.895Z,15.85
2018-12-26T03:58:09.347Z,19.48
2018-12-26T04:00:59.440Z,16.42
2018-12-26T04:03:49.661Z,16.42
2018-12-26T04:06:39.563Z,16.15
2018-12-26T04:09:29.779Z,14.53
2018-12-26T04:12:20.086Z,15.35
2018-12-26T04:15:10.696Z,15.20
2018-12-26T04:18:00.993Z,15.40
2018-12-26T04:20:51.435Z,16.55
2018-12-26T04:23:41.455Z,14.83
2018-12-26T04:26:31.476Z,17.65
2018-12-26T04:29:21.348Z,15.90
2018-12-26T04:32:11.575Z,15.13
2018-12-26T04:35:01.330Z,12.95
2018-12-26T04:37:51.477Z,16.27
2018-12-26T04:40:41.555Z,16.12
2018-12-26T04:43:31.927Z,15.95
2018-12-26T04:46:21.638Z,17.05
2018-12-26T04:49:11.994Z,13.90
2018-12-26T04:52:02.312Z,14.20
2018-12-26T04:54:52.268Z,12.05
2018-12-26T04:57:42.511Z,12.15
2018-12-26T05:00:32.132Z,14.98
2018-12-26T05:03:22.883Z,10.25
2018-12-26T05:06:13.089Z,12.98
2018-12-26T05:09:04.199Z,12.20
2018-12-26T05:11:54.058Z,10.63
2018-12-26T05:14:43.483Z,12.53
2018-12-26T05:17:33.902Z,11.97
2018-12-26T05:20:23.467Z,11.50
2018-12-26T05:23:13.099Z,10.00
2018-12-26T05:26:03.174Z,11.00
2018-12-26T05:28:52.823Z,12.28
2018-12-26T05:31:43.197Z,13.50
2018-12-26T05:34:33.372Z,12.10
2018-12-26T05:37:23.318Z,11.23
2018-12-26T05:40:13.026Z,12.03
2018-12-26T05:43:03.497Z,11.28
2018-12-26T05:45:53.320Z,10.30
2018-12-26T05:48:43.038Z,10.40
2018-12-26T05:51:33.394Z,12.13
2018-12-26T05:54:24.053Z,10.00
2018-12-26T05:57:14.705Z,12.35
2018-12-26T06:00:04.722Z,13.40
2018-12-26T06:02:54.865Z,10.50
2018-12-26T06:05:44.856Z,11.93
2018-12-26T06:08:35.104Z,13.13
2018-12-26T06:11:25.534Z,15.43
2018-12-26T06:14:15.804Z,15.53
2018-12-26T06:17:06.183Z,15.72
2018-12-26T06:19:56.252Z,13.53
2018-12-26T06:22:46.912Z,17.55
2018-12-26T06:25:36.809Z,17.15
2018-12-26T06:28:26.520Z,16.70
2018-12-26T06:31:16.906Z,15.72
2018-12-26T06:34:06.683Z,17.90
2018-12-26T06:36:56.256Z,17.30
2018-12-26T06:39:45.770Z,16.85
2018-12-26T06:42:35.884Z,18.12
2018-12-26T06:45:26.055Z,18.60
2018-12-26T06:48:16.224Z,13.85
2018-12-26T06:51:06.040Z,14.10
2018-12-26T06:53:56.662Z,15.75
2018-12-26T06:56:46.413Z,14.58
2018-12-26T06:59:36.667Z,16.02
2018-12-26T07:02:27.366Z,16.33
2018-12-26T07:05:17.308Z,15.00
2018-12-26T07:08:07.296Z,15.88
2018-12-26T07:10:57.821Z,15.20
2018-12-26T07:13:48.201Z,15.88
2018-12-26T07:16:38.609Z,17.23
2018-12-26T07:19:28.657Z,14.75
2018-12-26T07:22:18.451Z,14.25
2018-12-26T07:25:08.869Z,17.95
2018-12-26T07:27:58.664Z,14.63
2018-12-26T07:30:48.493Z,13.50
2018-12-26T07:33:38.603Z,14.07
2018-12-26T07:36:29.084Z,13.85
2018-12-26T07:39:18.834Z,14.95
2018-12-26T07:42:09.254Z,14.43
2018-12-26T07:44:59.315Z,15.45
2018-12-26T07:47:49.920Z,13.93
2018-12-26T07:50:39.662Z,13.83
2018-12-26T07:53:29.898Z,13.88
2018-12-26T07:56:20.007Z,12.90
2018-12-26T07:59:09.971Z,14.68
2018-12-26T08:02:00.171Z,16.03
2018-12-26T08:04:50.593Z,15.40
2018-12-26T08:07:40.713Z,14.78
2018-12-26T08:10:30.253Z,13.58
2018-12-26T08:13:20.151Z,14.30
2018-12-26T08:16:10.029Z,11.03
2018-12-26T08:19:00.056Z,12.33
2018-12-26T08:21:50.215Z,13.18
2018-12-26T08:24:41.015Z,9.93
2018-12-26T08:27:31.599Z,12.53
2018-12-26T08:30:21.704Z,11.08
2018-12-26T08:33:13.391Z,10.20
2018-12-26T08:36:02.836Z,9.68
2018-12-26T08:38:52.620Z,10.95
2018-12-26T08:41:42.369Z,8.68
2018-12-26T08:44:32.245Z,9.33
2018-12-26T08:47:22.653Z,9.87
2018-12-26T08:50:12.895Z,8.20
2018-12-26T08:53:03.156Z,8.75
2018-12-26T08:55:53.510Z,9.98
2018-12-26T08:58:43.505Z,10.00
2018-12-26T09:01:33.507Z,9.50
2018-12-26T09:04:23.339Z,8.38
2018-12-26T09:07:13.250Z,7.60
2018-12-26T09:10:03.149Z,6.87
2018-12-26T09:12:53.592Z,7.80
2018-12-26T09:15:44.163Z,9.88
2018-12-26T09:18:34.377Z,7.75
2018-12-26T09:21:24.357Z,9.53
2018-12-26T09:24:14.556Z,8.35
2018-12-26T09:27:07.730Z,8.13
2018-12-26T09:29:57.295Z,9.30
2018-12-26T09:32:46.981Z,8.68
2018-12-26T09:35:38.003Z,10.15
2018-12-26T09:38:27.959Z,7.80
2018-12-26T09:41:18.155Z,11.88
2018-12-26T09:44:08.228Z,9.68
2018-12-26T09:46:58.611Z,7.80
2018-12-26T09:49:49.645Z,5.50
2018-12-26T09:52:39.764Z,6.87
2018-12-26T09:55:29.922Z,7.47
2018-12-26T09:58:19.840Z,7.35
2018-12-26T10:01:11.026Z,7.42
2018-12-26T10:04:01.194Z,8.88
2018-12-26T10:06:51.390Z,5.83
2018-12-26T10:09:41.834Z,6.80
2018-12-26T10:12:32.144Z,6.72
2018-12-26T10:15:21.850Z,7.28
2018-12-26T10:18:12.212Z,5.43
2018-12-26T10:21:02.367Z,7.80
2018-12-26T10:23:52.069Z,7.30
2018-12-26T10:26:42.446Z,7.75
2018-12-26T10:29:32.684Z,7.12
2018-12-26T10:32:22.648Z,5.70
2018-12-26T10:35:12.815Z,5.70
2018-12-26T10:38:03.101Z,6.03
2018-12-26T10:40:53.440Z,5.90
2018-12-26T10:43:43.821Z,6.50
2018-12-26T10:46:33.696Z,5.97
2018-12-26T10:49:24.315Z,4.40
2018-12-26T10:52:14.139Z,4.67
2018-12-26T10:55:04.552Z,5.10
2018-12-26T10:57:54.980Z,5.97
2018-12-26T11:00:44.954Z,6.40
2018-12-26T11:03:35.156Z,6.30
2018-12-26T11:06:25.335Z,8.20
2018-12-26T11:09:15.591Z,5.85
2018-12-26T11:12:06.201Z,7.03
2018-12-26T11:14:56.492Z,7.58
2018-12-26T11:17:46.200Z,6.43
2018-12-26T11:20:36.373Z,5.62
2018-12-26T11:23:25.792Z,7.40
2018-12-26T11:26:15.726Z,7.33
2018-12-26T11:29:05.402Z,7.92
2018-12-26T11:31:55.268Z,11.13
2018-12-26T11:34:44.921Z,10.00
2018-12-26T11:37:35.168Z,10.50
2018-12-26T11:40:25.048Z,10.30
2018-12-26T11:43:14.750Z,7.05
2018-12-26T11:46:05.183Z,8.58
2018-12-26T11:48:55.285Z,9.43
2018-12-26T11:51:45.487Z,7.42
2018-12-26T11:54:35.395Z,9.20
2018-12-26T11:57:25.275Z,9.40
2018-12-26T12:00:15.346Z,10.13
2018-12-26T12:03:05.040Z,7.50
2018-12-26T12:05:54.526Z,8.65
2018-12-26T12:08:44.948Z,9.03
2018-12-26T12:11:35.161Z,12.65
2018-12-26T12:14:25.414Z,16.65
2018-12-26T12:17:16.384Z,16.30
2018-12-26T12:20:07.834Z,14.45
2018-12-26T12:22:58.093Z,15.38
2018-12-26T12:25:48.052Z,17.55
2018-12-26T12:28:38.033Z,17.40
2018-12-26T12:31:27.951Z,16.20
2018-12-26T12:34:18.056Z,17.15
2018-12-26T12:37:08.356Z,17.50
2018-12-26T12:39:58.238Z,16.55
2018-12-26T12:42:49.034Z,17.15
2018-12-26T12:45:40.072Z,16.00
2018-12-26T12:48:29.888Z,17.87
2018-12-26T12:51:19.867Z,15.23
2018-12-26T12:54:09.989Z,15.78
2018-12-26T12:57:00.620Z,17.20
2018-12-26T12:59:50.252Z,17.27
2018-12-26T13:02:40.692Z,16.20
2018-12-26T13:05:30.641Z,15.78
2018-12-26T13:08:21.169Z,15.98
2018-12-26T13:11:11.322Z,14.60
2018-12-26T13:14:03.972Z,16.50
2018-12-26T13:16:54.037Z,18.03
2018-12-26T13:19:44.342Z,18.52
2018-12-26T13:22:34.845Z,15.70
2018-12-26T13:25:25.162Z,16.67
2018-12-26T13:28:15.545Z,16.75
2018-12-26T13:31:05.715Z,16.35
2018-12-26T13:33:55.969Z,18.50
2018-12-26T13:36:45.814Z,17.20
2018-12-26T13:39:36.142Z,17.25
2018-12-26T13:42:26.070Z,17.40
2018-12-26T13:45:15.728Z,18.82
2018-12-26T13:48:06.213Z,16.03
2018-12-26T13:50:56.376Z,15.90
2018-12-26T13:53:46.037Z,15.63
2018-12-26T13:56:35.975Z,19.73
2018-12-26T13:59:25.699Z,19.05
2018-12-26T14:02:15.678Z,19.70
2018-12-26T14:05:05.740Z,18.80
2018-12-26T14:07:55.865Z,19.95
2018-12-26T14:10:46.516Z,20.12
2018-12-26T14:13:36.933Z,18.37
2018-12-26T14:16:27.051Z,22.80
2018-12-26T14:19:16.548Z,20.02
2018-12-26T14:22:06.663Z,19.48
2018-12-26T14:24:56.369Z,20.00
2018-12-26T14:27:46.513Z,21.60
2018-12-26T14:30:37.154Z,18.45
2018-12-26T14:33:27.695Z,20.90
2018-12-26T14:36:17.568Z,20.45
2018-12-26T14:39:08.530Z,18.50
2018-12-26T14:41:58.490Z,20.43
2018-12-26T14:44:48.496Z,19.52
2018-12-26T14:47:38.229Z,23.00
2018-12-26T14:50:28.851Z,19.15
2018-12-26T14:53:19.358Z,24.30
2018-12-26T14:56:09.620Z,20.27
2018-12-26T14:58:59.698Z,22.13
2018-12-26T15:01:49.626Z,28.47
2018-12-26T15:04:39.991Z,26.42
2018-12-26T15:07:30.401Z,22.32
2018-12-26T15:10:20.715Z,20.00
2018-12-26T15:13:10.756Z,28.55
2018-12-26T15:16:01.147Z,22.95
2018-12-26T15:18:51.594Z,21.62
2018-12-26T15:21:41.380Z,22.60
2018-12-26T15:24:31.339Z,22.77
2018-12-26T15:27:21.815Z,24.87
2018-12-26T15:30:11.953Z,24.50
2018-12-26T15:33:02.044Z,21.93
2018-12-26T15:35:52.362Z,25.15
2018-12-26T15:38:42.339Z,23.32
2018-12-26T15:41:32.669Z,22.50
2018-12-26T15:44:22.746Z,23.47
2018-12-26T15:47:12.647Z,28.13
2018-12-26T15:50:02.659Z,25.32
2018-12-26T15:52:52.909Z,25.00
2018-12-26T15:55:43.019Z,30.97
2018-12-26T15:58:33.456Z,27.20
2018-12-26T16:01:24.248Z,26.60
2018-12-26T16:04:14.349Z,29.32
2018-12-26T16:07:04.162Z,26.48
2018-12-26T16:09:54.199Z,25.92
2018-12-26T16:12:44.617Z,26.17
2018-12-26T16:15:34.140Z,24.52
2018-12-26T16:18:24.882Z,26.40
2018-12-26T16:21:14.647Z,25.30
2018-12-26T16:24:04.728Z,25.10
2018-12-26T16:26:55.516Z,24.18
2018-12-26T16:29:46.046Z,25.77
2018-12-26T16:32:36.092Z,25.75
2018-12-26T16:35:26.229Z,24.98
2018-12-26T16:38:16.352Z,22.85
2018-12-26T16:41:06.663Z,25.92
2018-12-26T16:43:57.066Z,26.97
2018-12-26T16:46:47.009Z,27.37
2018-12-26T16:49:37.256Z,22.10
2018-12-26T16:52:28.013Z,22.82
2018-12-26T16:55:18.257Z,26.17
2018-12-26T16:58:08.689Z,25.88
2018-12-26T17:00:58.839Z,32.55
2018-12-26T17:03:48.402Z,38.05
2018-12-26T17:06:38.208Z,29.32
2018-12-26T17:09:28.203Z,24.82
2018-12-26T17:12:18.197Z,24.45
2018-12-26T17:15:07.773Z,22.87
2018-12-26T17:17:58.628Z,28.40
2018-12-26T17:20:49.061Z,26.77
2018-12-26T17:23:38.944Z,32.55
2018-12-26T17:26:29.017Z,50.73
2018-12-26T17:29:19.141Z,27.87
2018-12-26T17:32:08.801Z,37.50
2018-12-26T17:34:58.916Z,42.33
2018-12-26T17:37:49.198Z,34.85
2018-12-26T17:40:39.729Z,32.83
2018-12-26T17:43:29.941Z,35.05
2018-12-26T17:46:20.772Z,31.00
2018-12-26T17:49:11.065Z,33.55
2018-12-26T17:52:01.486Z,49.58
2018-12-26T17:55:25.204Z,31.07
2018-12-26T17:58:14.927Z,31.15
2018-12-26T18:01:31.112Z,27.90
2018-12-26T18:04:20.781Z,31.33
2018-12-26T18:07:11.248Z,32.20
2018-12-26T18:10:01.517Z,27.20
2018-12-26T18:12:51.873Z,28.45
2018-12-26T18:15:42.690Z,48.78
2018-12-26T18:18:33.047Z,29.60
2018-12-26T18:21:23.498Z,22.62
2018-12-26T18:24:14.181Z,27.60
2018-12-26T18:27:04.288Z,25.70
2018-12-26T18:29:54.400Z,43.08
2018-12-26T18:32:44.950Z,23.80
2018-12-26T18:35:35.813Z,22.73
2018-12-26T18:38:26.497Z,26.62
2018-12-26T18:41:16.360Z,20.43
2018-12-26T18:44:06.608Z,21.97
2018-12-26T18:46:56.702Z,20.03
2018-12-26T18:49:47.096Z,19.67
2018-12-26T18:52:37.211Z,24.75
2018-12-26T18:55:27.147Z,40.25
2018-12-26T18:58:17.245Z,18.92
2018-12-26T19:01:07.234Z,21.75
2018-12-26T19:03:57.995Z,30.48
2018-12-26T19:06:48.239Z,20.82
2018-12-26T19:09:38.490Z,25.90
2018-12-26T19:12:28.783Z,29.00
2018-12-26T19:15:18.619Z,23.05
2018-12-26T19:18:08.645Z,22.37
2018-12-26T19:20:59.155Z,28.15
2018-12-26T19:23:48.980Z,23.90
2018-12-26T19:26:39.008Z,24.82
2018-12-26T19:29:29.079Z,28.07
2018-12-26T19:32:20.068Z,31.37
2018-12-26T19:35:14.517Z,26.60
2018-12-26T19:38:04.814Z,28.55
2018-12-26T19:40:55.273Z,28.02
2018-12-26T19:43:45.446Z,26.30
2018-12-26T19:46:35.803Z,25.47
2018-12-26T19:49:25.873Z,32.40
2018-12-26T19:52:16.154Z,28.95
2018-12-26T19:55:07.702Z,23.02
2018-12-26T19:57:57.976Z,20.97
2018-12-26T20:00:48.633Z,20.60
2018-12-26T20:03:39.042Z,25.20
2018-12-26T20:06:29.471Z,37.23
2018-12-26T20:09:20.275Z,36.40
2018-12-26T20:12:10.985Z,31.12
2018-12-26T20:15:01.291Z,29.40
2018-12-26T20:17:51.548Z,25.63
2018-12-26T20:20:42.006Z,36.17
2018-12-26T20:23:31.786Z,37.40
2018-12-26T20:26:21.699Z,26.45
2018-12-26T20:29:12.226Z,24.57
2018-12-26T20:32:02.263Z,34.73
2018-12-26T20:34:52.486Z,19.30
2018-12-26T20:37:42.641Z,21.90
2018-12-26T20:40:33.203Z,18.55
2018-12-26T20:43:23.758Z,21.15
2018-12-26T20:46:14.207Z,19.65
2018-12-26T20:49:04.593Z,21.40
2018-12-26T20:51:54.427Z,17.67
2018-12-26T20:54:44.772Z,22.22
2018-12-26T20:57:34.960Z,25.10
2018-12-26T21:00:25.082Z,23.47
2018-12-26T21:03:14.893Z,25.03
2018-12-26T21:06:24.379Z,26.42
2018-12-26T21:09:14.568Z,21.25
2018-12-26T21:12:05.580Z,29.07
2018-12-26T21:14:56.310Z,25.70
2018-12-26T21:17:46.915Z,24.93
2018-12-26T21:20:37.271Z,28.87
2018-12-26T21:23:27.483Z,21.48
2018-12-26T21:26:17.583Z,22.15
2018-12-26T21:29:07.494Z,24.32
2018-12-26T21:31:57.987Z,27.70
2018-12-26T21:34:47.904Z,27.17
2018-12-26T21:37:37.956Z,23.80
2018-12-26T21:40:27.800Z,24.43
2018-12-26T21:43:19.714Z,24.18
2018-12-26T21:46:10.040Z,24.87
2018-12-26T21:49:00.501Z,25.57
2018-12-26T21:51:50.833Z,24.02
2018-12-26T21:54:40.868Z,20.23
2018-12-26T21:57:31.016Z,25.85
2018-12-26T22:00:21.378Z,22.20
2018-12-26T22:03:11.117Z,22.10
2018-12-26T22:06:01.189Z,28.95
2018-12-26T22:08:51.324Z,26.10
2018-12-26T22:11:41.839Z,22.90
2018-12-26T22:14:32.391Z,25.17
2018-12-26T22:17:22.552Z,26.77
2018-12-26T22:20:14.756Z,26.75
2018-12-26T22:23:05.211Z,31.45
2018-12-26T22:25:55.195Z,27.82
2018-12-26T22:28:45.471Z,28.85
2018-12-26T22:31:35.072Z,26.65
2018-12-26T22:34:24.649Z,27.70
2018-12-26T22:37:15.278Z,24.12
2018-12-26T22:40:06.007Z,28.23
2018-12-26T22:42:56.749Z,31.07
2018-12-26T22:45:47.098Z,35.50
2018-12-26T22:48:37.359Z,36.28
2018-12-26T22:51:27.383Z,38.58
2018-12-26T22:54:17.700Z,42.43
2018-12-26T22:57:07.597Z,36.25
2018-12-26T22:59:58.216Z,29.90
2018-12-26T23:02:48.589Z,34.50
2018-12-26T23:05:38.602Z,29.72
2018-12-26T23:08:29.201Z,31.80
2018-12-26T23:11:19.597Z,29.15
2018-12-26T23:14:10.281Z,32.40
2018-12-26T23:17:00.266Z,43.55
2018-12-26T23:19:50.451Z,37.60
2018-12-26T23:22:40.827Z,28.45
2018-12-26T23:25:30.558Z,27.25
2018-12-26T23:28:21.227Z,24.52
2018-12-26T23:31:11.223Z,23.20
2018-12-26T23:34:01.358Z,23.90
2018-12-26T23:36:51.490Z,26.02
2018-12-26T23:39:42.170Z,25.50
2018-12-26T23:42:31.992Z,22.25
2018-12-26T23:45:21.762Z,22.98
2018-12-26T23:48:11.620Z,22.37
2018-12-26T23:51:01.286Z,23.27
2018-12-26T23:53:51.526Z,25.37
2018-12-26T23:56:41.381Z,23.87
2018-12-26T23:59:31.914Z,27.62
